sensor_id;sensor_type;location;lat;lon;timestamp;temperature;humidity
792;DHT22;379;49.022;12.148;2023-04-25T00:01:35;6.90;99.90
792;DHT22;379;49.022;12.148;2023-04-25T00:04:03;6.90;99.90
792;DHT22;379;49.022;12.148;2023-04-25T00:06:31;6.90;99.90
792;DHT22;379;49.022;12.148;2023-04-25T00:08:59;6.90;99.90
792;DHT22;379;49.022;12.148;2023-04-25T00:11:26;7.00;99.90
792;DHT22;379;49.022;12.148;2023-04-25T00:13:53;7.00;99.90
792;DHT22;379;49.022;12.148;2023-04-25T00:16:19;6.90;99.90
792;DHT22;379;49.022;12.148;2023-04-25T00:18:46;7.00;99.90
792;DHT22;379;49.022;12.148;2023-04-25T00:21:17;6.90;99.90
792;DHT22;379;49.022;12.148;2023-04-25T00:23:43;6.80;99.90
792;DHT22;379;49.022;12.148;2023-04-25T00:26:12;6.80;99.90
792;DHT22;379;49.022;12.148;2023-04-25T00:28:39;6.80;99.90
792;DHT22;379;49.022;12.148;2023-04-25T00:31:06;6.80;99.90
792;DHT22;379;49.022;12.148;2023-04-25T00:33:32;6.80;99.90
792;DHT22;379;49.022;12.148;2023-04-25T00:36:00;6.80;99.90
792;DHT22;379;49.022;12.148;2023-04-25T00:38:27;6.80;99.90
792;DHT22;379;49.022;12.148;2023-04-25T00:40:53;6.70;99.90
792;DHT22;379;49.022;12.148;2023-04-25T00:43:22;6.70;99.90
792;DHT22;379;49.022;12.148;2023-04-25T00:45:50;6.70;99.90
792;DHT22;379;49.022;12.148;2023-04-25T00:48:20;6.70;99.90
792;DHT22;379;49.022;12.148;2023-04-25T00:50:52;6.70;99.90
792;DHT22;379;49.022;12.148;2023-04-25T00:53:19;6.60;99.90
792;DHT22;379;49.022;12.148;2023-04-25T00:55:46;6.60;99.90
792;DHT22;379;49.022;12.148;2023-04-25T00:58:13;6.60;99.90
792;DHT22;379;49.022;12.148;2023-04-25T01:00:42;6.60;99.90
792;DHT22;379;49.022;12.148;2023-04-25T01:03:09;6.60;99.90
792;DHT22;379;49.022;12.148;2023-04-25T01:05:36;6.60;99.90
792;DHT22;379;49.022;12.148;2023-04-25T01:08:03;6.60;99.90
792;DHT22;379;49.022;12.148;2023-04-25T01:10:30;6.60;99.90
792;DHT22;379;49.022;12.148;2023-04-25T01:12:57;6.50;99.90
792;DHT22;379;49.022;12.148;2023-04-25T01:15:23;6.50;99.90
792;DHT22;379;49.022;12.148;2023-04-25T01:17:52;6.50;99.90
792;DHT22;379;49.022;12.148;2023-04-25T01:20:21;6.50;99.90
792;DHT22;379;49.022;12.148;2023-04-25T01:22:50;6.50;99.90
792;DHT22;379;49.022;12.148;2023-04-25T01:25:19;6.50;99.90
792;DHT22;379;49.022;12.148;2023-04-25T01:27:46;6.50;99.90
792;DHT22;379;49.022;12.148;2023-04-25T01:30:13;6.60;99.90
792;DHT22;379;49.022;12.148;2023-04-25T01:32:40;6.60;99.90
792;DHT22;379;49.022;12.148;2023-04-25T01:35:09;6.70;99.90
792;DHT22;379;49.022;12.148;2023-04-25T01:37:36;6.70;99.90
792;DHT22;379;49.022;12.148;2023-04-25T01:40:06;6.70;99.90
792;DHT22;379;49.022;12.148;2023-04-25T01:42:33;6.80;99.90
792;DHT22;379;49.022;12.148;2023-04-25T01:45:01;6.80;99.90
792;DHT22;379;49.022;12.148;2023-04-25T01:47:27;6.80;99.90
792;DHT22;379;49.022;12.148;2023-04-25T01:53:16;6.80;99.90
792;DHT22;379;49.022;12.148;2023-04-25T01:55:44;6.80;99.90
792;DHT22;379;49.022;12.148;2023-04-25T01:58:11;6.80;99.90
792;DHT22;379;49.022;12.148;2023-04-25T02:00:38;6.80;99.90
792;DHT22;379;49.022;12.148;2023-04-25T02:03:06;6.90;99.90
792;DHT22;379;49.022;12.148;2023-04-25T02:05:36;6.90;99.90
792;DHT22;379;49.022;12.148;2023-04-25T02:08:05;6.90;99.90
792;DHT22;379;49.022;12.148;2023-04-25T02:10:32;6.90;99.90
792;DHT22;379;49.022;12.148;2023-04-25T02:13:00;6.90;99.90
792;DHT22;379;49.022;12.148;2023-04-25T02:15:27;6.90;99.90
792;DHT22;379;49.022;12.148;2023-04-25T02:17:54;6.90;99.90
792;DHT22;379;49.022;12.148;2023-04-25T02:20:22;6.90;99.90
792;DHT22;379;49.022;12.148;2023-04-25T02:22:49;6.90;99.90
792;DHT22;379;49.022;12.148;2023-04-25T02:25:16;6.90;99.90
792;DHT22;379;49.022;12.148;2023-04-25T02:27:43;6.80;99.90
792;DHT22;379;49.022;12.148;2023-04-25T02:30:12;6.80;99.90
792;DHT22;379;49.022;12.148;2023-04-25T02:32:39;6.80;99.90
792;DHT22;379;49.022;12.148;2023-04-25T02:35:06;6.80;99.90
792;DHT22;379;49.022;12.148;2023-04-25T02:37:35;6.80;99.90
792;DHT22;379;49.022;12.148;2023-04-25T02:40:02;6.80;99.90
792;DHT22;379;49.022;12.148;2023-04-25T02:42:29;6.70;99.90
792;DHT22;379;49.022;12.148;2023-04-25T02:44:56;6.70;99.90
792;DHT22;379;49.022;12.148;2023-04-25T02:47:24;6.70;99.90
792;DHT22;379;49.022;12.148;2023-04-25T02:49:51;6.70;99.90
792;DHT22;379;49.022;12.148;2023-04-25T02:52:18;6.60;99.90
792;DHT22;379;49.022;12.148;2023-04-25T02:54:44;6.60;99.90
792;DHT22;379;49.022;12.148;2023-04-25T02:57:11;6.50;99.90
792;DHT22;379;49.022;12.148;2023-04-25T02:59:38;6.50;99.90
792;DHT22;379;49.022;12.148;2023-04-25T03:02:04;6.40;99.90
792;DHT22;379;49.022;12.148;2023-04-25T03:04:32;6.40;99.90
792;DHT22;379;49.022;12.148;2023-04-25T03:06:59;6.30;99.90
792;DHT22;379;49.022;12.148;2023-04-25T03:09:26;6.30;99.90
792;DHT22;379;49.022;12.148;2023-04-25T03:11:53;6.20;99.90
792;DHT22;379;49.022;12.148;2023-04-25T03:14:20;6.20;99.90
792;DHT22;379;49.022;12.148;2023-04-25T03:16:46;6.30;99.90
792;DHT22;379;49.022;12.148;2023-04-25T03:19:13;6.20;99.90
792;DHT22;379;49.022;12.148;2023-04-25T03:21:43;6.20;99.90
792;DHT22;379;49.022;12.148;2023-04-25T03:24:09;6.20;99.90
792;DHT22;379;49.022;12.148;2023-04-25T03:26:37;6.20;99.90
792;DHT22;379;49.022;12.148;2023-04-25T03:29:04;6.20;99.90
792;DHT22;379;49.022;12.148;2023-04-25T03:31:31;6.30;99.90
792;DHT22;379;49.022;12.148;2023-04-25T03:33:57;6.30;99.90
792;DHT22;379;49.022;12.148;2023-04-25T03:36:24;6.30;99.90
792;DHT22;379;49.022;12.148;2023-04-25T03:38:52;6.30;99.90
792;DHT22;379;49.022;12.148;2023-04-25T03:41:19;6.30;99.90
792;DHT22;379;49.022;12.148;2023-04-25T03:43:46;6.30;99.90
792;DHT22;379;49.022;12.148;2023-04-25T03:46:12;6.30;99.90
792;DHT22;379;49.022;12.148;2023-04-25T03:48:39;6.20;99.90
792;DHT22;379;49.022;12.148;2023-04-25T03:51:06;6.30;99.90
792;DHT22;379;49.022;12.148;2023-04-25T03:53:33;6.30;99.90
792;DHT22;379;49.022;12.148;2023-04-25T03:56:01;6.30;99.90
792;DHT22;379;49.022;12.148;2023-04-25T03:58:27;6.30;99.90
792;DHT22;379;49.022;12.148;2023-04-25T04:00:54;6.40;99.90
792;DHT22;379;49.022;12.148;2023-04-25T04:03:21;6.40;99.90
792;DHT22;379;49.022;12.148;2023-04-25T04:05:48;6.50;99.90
792;DHT22;379;49.022;12.148;2023-04-25T04:08:16;6.50;99.90
792;DHT22;379;49.022;12.148;2023-04-25T04:10:42;6.50;99.90
792;DHT22;379;49.022;12.148;2023-04-25T04:13:10;6.50;99.90
792;DHT22;379;49.022;12.148;2023-04-25T04:15:37;6.50;99.90
792;DHT22;379;49.022;12.148;2023-04-25T04:18:04;6.50;99.90
792;DHT22;379;49.022;12.148;2023-04-25T04:20:31;6.50;99.90
792;DHT22;379;49.022;12.148;2023-04-25T04:22:58;6.50;99.90
792;DHT22;379;49.022;12.148;2023-04-25T04:25:25;6.50;99.90
792;DHT22;379;49.022;12.148;2023-04-25T04:27:51;6.50;99.90
792;DHT22;379;49.022;12.148;2023-04-25T04:30:21;6.50;99.90
792;DHT22;379;49.022;12.148;2023-04-25T04:32:49;6.60;99.90
792;DHT22;379;49.022;12.148;2023-04-25T04:35:16;6.60;99.90
792;DHT22;379;49.022;12.148;2023-04-25T04:37:43;6.60;99.90
792;DHT22;379;49.022;12.148;2023-04-25T04:40:11;6.70;99.90
792;DHT22;379;49.022;12.148;2023-04-25T04:42:40;6.70;99.90
792;DHT22;379;49.022;12.148;2023-04-25T04:45:08;6.70;99.90
792;DHT22;379;49.022;12.148;2023-04-25T04:47:36;6.80;99.90
792;DHT22;379;49.022;12.148;2023-04-25T04:50:05;6.80;99.90
792;DHT22;379;49.022;12.148;2023-04-25T04:52:32;6.80;99.90
792;DHT22;379;49.022;12.148;2023-04-25T04:54:59;6.90;99.90
792;DHT22;379;49.022;12.148;2023-04-25T04:57:27;6.90;99.90
792;DHT22;379;49.022;12.148;2023-04-25T04:59:54;7.00;99.90
792;DHT22;379;49.022;12.148;2023-04-25T05:02:21;7.00;99.90
792;DHT22;379;49.022;12.148;2023-04-25T05:04:49;7.00;99.90
792;DHT22;379;49.022;12.148;2023-04-25T05:07:16;7.00;99.90
792;DHT22;379;49.022;12.148;2023-04-25T05:09:43;7.00;99.90
792;DHT22;379;49.022;12.148;2023-04-25T05:12:10;7.00;99.90
792;DHT22;379;49.022;12.148;2023-04-25T05:14:37;7.00;99.90
792;DHT22;379;49.022;12.148;2023-04-25T05:17:03;7.00;99.90
792;DHT22;379;49.022;12.148;2023-04-25T05:19:33;7.00;99.90
792;DHT22;379;49.022;12.148;2023-04-25T05:22:02;7.10;99.90
792;DHT22;379;49.022;12.148;2023-04-25T05:24:29;7.30;99.90
792;DHT22;379;49.022;12.148;2023-04-25T05:26:56;7.50;99.90
792;DHT22;379;49.022;12.148;2023-04-25T05:29:22;7.70;99.90
792;DHT22;379;49.022;12.148;2023-04-25T05:31:49;7.80;99.90
792;DHT22;379;49.022;12.148;2023-04-25T05:34:16;7.90;99.90
792;DHT22;379;49.022;12.148;2023-04-25T05:36:43;8.00;99.90
792;DHT22;379;49.022;12.148;2023-04-25T05:39:11;8.40;99.90
792;DHT22;379;49.022;12.148;2023-04-25T05:41:38;8.90;99.90
792;DHT22;379;49.022;12.148;2023-04-25T05:44:05;9.50;99.90
792;DHT22;379;49.022;12.148;2023-04-25T05:46:31;10.10;99.90
792;DHT22;379;49.022;12.148;2023-04-25T05:48:58;10.90;99.90
792;DHT22;379;49.022;12.148;2023-04-25T05:51:25;11.60;97.10
792;DHT22;379;49.022;12.148;2023-04-25T05:53:53;12.20;91.70
792;DHT22;379;49.022;12.148;2023-04-25T05:56:21;12.50;85.70
792;DHT22;379;49.022;12.148;2023-04-25T05:58:47;12.30;82.80
792;DHT22;379;49.022;12.148;2023-04-25T06:01:14;12.20;81.60
792;DHT22;379;49.022;12.148;2023-04-25T06:03:41;12.40;82.20
792;DHT22;379;49.022;12.148;2023-04-25T06:06:08;12.80;81.60
792;DHT22;379;49.022;12.148;2023-04-25T06:08:35;13.20;79.80
792;DHT22;379;49.022;12.148;2023-04-25T06:11:03;13.30;76.50
792;DHT22;379;49.022;12.148;2023-04-25T06:13:31;12.90;76.10
792;DHT22;379;49.022;12.148;2023-04-25T06:15:58;13.00;77.80
792;DHT22;379;49.022;12.148;2023-04-25T06:18:25;13.50;76.20
792;DHT22;379;49.022;12.148;2023-04-25T06:20:51;14.10;75.10
792;DHT22;379;49.022;12.148;2023-04-25T06:23:18;14.50;71.70
792;DHT22;379;49.022;12.148;2023-04-25T06:25:47;14.60;70.00
792;DHT22;379;49.022;12.148;2023-04-25T06:28:14;14.70;70.30
792;DHT22;379;49.022;12.148;2023-04-25T06:30:42;15.10;68.40
792;DHT22;379;49.022;12.148;2023-04-25T06:33:08;15.50;67.20
792;DHT22;379;49.022;12.148;2023-04-25T06:35:35;15.90;64.90
792;DHT22;379;49.022;12.148;2023-04-25T06:38:02;16.30;62.50
792;DHT22;379;49.022;12.148;2023-04-25T06:40:29;16.70;60.90
792;DHT22;379;49.022;12.148;2023-04-25T06:42:55;16.90;60.40
792;DHT22;379;49.022;12.148;2023-04-25T06:45:22;16.70;60.10
792;DHT22;379;49.022;12.148;2023-04-25T06:47:50;16.50;59.30
792;DHT22;379;49.022;12.148;2023-04-25T06:50:17;16.40;59.40
792;DHT22;379;49.022;12.148;2023-04-25T06:52:43;16.10;59.50
792;DHT22;379;49.022;12.148;2023-04-25T06:55:10;16.10;59.70
792;DHT22;379;49.022;12.148;2023-04-25T06:57:37;16.00;59.20
792;DHT22;379;49.022;12.148;2023-04-25T07:00:04;16.20;60.10
792;DHT22;379;49.022;12.148;2023-04-25T07:02:34;16.70;59.50
792;DHT22;379;49.022;12.148;2023-04-25T07:05:02;16.70;57.00
792;DHT22;379;49.022;12.148;2023-04-25T07:07:29;16.80;57.20
792;DHT22;379;49.022;12.148;2023-04-25T07:09:56;16.90;57.00
792;DHT22;379;49.022;12.148;2023-04-25T07:12:22;16.40;55.10
792;DHT22;379;49.022;12.148;2023-04-25T07:14:49;15.80;56.50
792;DHT22;379;49.022;12.148;2023-04-25T07:17:16;15.20;57.50
792;DHT22;379;49.022;12.148;2023-04-25T07:19:43;14.70;58.40
792;DHT22;379;49.022;12.148;2023-04-25T07:22:11;14.00;57.70
792;DHT22;379;49.022;12.148;2023-04-25T07:24:38;13.50;59.40
792;DHT22;379;49.022;12.148;2023-04-25T07:27:04;12.90;59.80
792;DHT22;379;49.022;12.148;2023-04-25T07:29:31;12.50;61.80
792;DHT22;379;49.022;12.148;2023-04-25T07:32:01;12.30;62.20
792;DHT22;379;49.022;12.148;2023-04-25T07:34:27;12.70;63.70
792;DHT22;379;49.022;12.148;2023-04-25T07:36:55;13.30;63.40
792;DHT22;379;49.022;12.148;2023-04-25T07:39:23;13.70;62.40
792;DHT22;379;49.022;12.148;2023-04-25T07:41:50;13.90;62.40
792;DHT22;379;49.022;12.148;2023-04-25T07:44:17;14.10;61.70
792;DHT22;379;49.022;12.148;2023-04-25T07:46:43;14.30;59.00
792;DHT22;379;49.022;12.148;2023-04-25T07:49:10;14.20;59.70
792;DHT22;379;49.022;12.148;2023-04-25T07:51:37;14.10;59.40
792;DHT22;379;49.022;12.148;2023-04-25T07:54:04;13.70;60.00
792;DHT22;379;49.022;12.148;2023-04-25T07:56:32;13.30;61.60
792;DHT22;379;49.022;12.148;2023-04-25T07:58:59;13.00;62.40
792;DHT22;379;49.022;12.148;2023-04-25T08:01:26;12.80;62.10
792;DHT22;379;49.022;12.148;2023-04-25T08:03:53;12.80;62.40
792;DHT22;379;49.022;12.148;2023-04-25T08:06:19;13.30;62.10
792;DHT22;379;49.022;12.148;2023-04-25T08:08:46;13.70;62.50
792;DHT22;379;49.022;12.148;2023-04-25T08:11:13;14.20;62.40
792;DHT22;379;49.022;12.148;2023-04-25T08:13:41;14.70;59.60
792;DHT22;379;49.022;12.148;2023-04-25T08:16:07;15.20;59.60
792;DHT22;379;49.022;12.148;2023-04-25T08:18:34;15.50;58.20
792;DHT22;379;49.022;12.148;2023-04-25T08:21:01;15.60;55.90
792;DHT22;379;49.022;12.148;2023-04-25T08:23:28;15.20;56.00
792;DHT22;379;49.022;12.148;2023-04-25T08:25:54;14.90;56.30
792;DHT22;379;49.022;12.148;2023-04-25T08:28:21;14.60;55.50
792;DHT22;379;49.022;12.148;2023-04-25T08:30:49;14.10;56.90
792;DHT22;379;49.022;12.148;2023-04-25T08:33:16;14.10;57.10
792;DHT22;379;49.022;12.148;2023-04-25T08:35:43;14.10;58.00
792;DHT22;379;49.022;12.148;2023-04-25T08:38:10;14.20;58.20
792;DHT22;379;49.022;12.148;2023-04-25T08:40:38;14.20;56.40
792;DHT22;379;49.022;12.148;2023-04-25T08:43:06;14.10;57.10
792;DHT22;379;49.022;12.148;2023-04-25T08:45:38;14.40;57.90
792;DHT22;379;49.022;12.148;2023-04-25T08:48:07;14.90;58.60
792;DHT22;379;49.022;12.148;2023-04-25T08:50:37;15.30;56.90
792;DHT22;379;49.022;12.148;2023-04-25T08:53:09;15.50;56.50
792;DHT22;379;49.022;12.148;2023-04-25T08:55:41;15.70;59.00
792;DHT22;379;49.022;12.148;2023-04-25T08:58:10;15.60;57.90
792;DHT22;379;49.022;12.148;2023-04-25T09:00:37;15.50;56.80
792;DHT22;379;49.022;12.148;2023-04-25T09:03:04;15.30;56.00
792;DHT22;379;49.022;12.148;2023-04-25T09:05:32;15.10;55.50
792;DHT22;379;49.022;12.148;2023-04-25T09:08:00;14.90;55.40
792;DHT22;379;49.022;12.148;2023-04-25T09:10:27;14.80;55.00
792;DHT22;379;49.022;12.148;2023-04-25T09:13:05;14.40;55.10
792;DHT22;379;49.022;12.148;2023-04-25T09:15:32;14.20;56.00
792;DHT22;379;49.022;12.148;2023-04-25T09:17:59;14.20;56.90
792;DHT22;379;49.022;12.148;2023-04-25T09:20:26;14.40;58.00
792;DHT22;379;49.022;12.148;2023-04-25T09:23:04;14.50;57.20
792;DHT22;379;49.022;12.148;2023-04-25T09:25:36;14.50;57.50
792;DHT22;379;49.022;12.148;2023-04-25T09:28:05;14.40;57.00
792;DHT22;379;49.022;12.148;2023-04-25T09:30:34;14.50;58.20
792;DHT22;379;49.022;12.148;2023-04-25T09:33:05;14.50;58.50
792;DHT22;379;49.022;12.148;2023-04-25T09:35:35;14.00;56.60
792;DHT22;379;49.022;12.148;2023-04-25T09:38:09;13.50;58.80
792;DHT22;379;49.022;12.148;2023-04-25T09:40:39;13.40;60.10
792;DHT22;379;49.022;12.148;2023-04-25T09:43:09;13.60;61.30
792;DHT22;379;49.022;12.148;2023-04-25T09:45:41;13.60;59.50
792;DHT22;379;49.022;12.148;2023-04-25T09:48:11;13.70;60.60
792;DHT22;379;49.022;12.148;2023-04-25T09:50:38;13.90;59.30
792;DHT22;379;49.022;12.148;2023-04-25T09:53:07;14.30;60.80
792;DHT22;379;49.022;12.148;2023-04-25T09:55:34;14.90;61.60
792;DHT22;379;49.022;12.148;2023-04-25T09:58:04;14.80;59.80
792;DHT22;379;49.022;12.148;2023-04-25T10:00:33;14.50;58.70
792;DHT22;379;49.022;12.148;2023-04-25T10:03:00;13.40;63.10
792;DHT22;379;49.022;12.148;2023-04-25T10:05:30;12.20;68.10
792;DHT22;379;49.022;12.148;2023-04-25T10:07:59;11.30;70.30
792;DHT22;379;49.022;12.148;2023-04-25T10:10:30;11.00;72.70
792;DHT22;379;49.022;12.148;2023-04-25T10:13:03;11.00;72.40
792;DHT22;379;49.022;12.148;2023-04-25T10:15:31;11.50;71.60
792;DHT22;379;49.022;12.148;2023-04-25T10:17:59;11.50;68.90
792;DHT22;379;49.022;12.148;2023-04-25T10:20:26;11.60;70.10
792;DHT22;379;49.022;12.148;2023-04-25T10:22:54;11.70;68.20
792;DHT22;379;49.022;12.148;2023-04-25T10:25:23;11.70;67.50
792;DHT22;379;49.022;12.148;2023-04-25T10:27:51;11.90;67.80
792;DHT22;379;49.022;12.148;2023-04-25T10:30:19;12.00;67.30
792;DHT22;379;49.022;12.148;2023-04-25T10:32:47;11.80;66.70
792;DHT22;379;49.022;12.148;2023-04-25T10:35:16;11.50;67.70
792;DHT22;379;49.022;12.148;2023-04-25T10:37:57;11.30;69.20
792;DHT22;379;49.022;12.148;2023-04-25T10:40:27;11.10;71.60
792;DHT22;379;49.022;12.148;2023-04-25T10:42:55;11.00;72.50
792;DHT22;379;49.022;12.148;2023-04-25T10:45:22;10.90;73.00
792;DHT22;379;49.022;12.148;2023-04-25T10:47:49;11.00;73.50
792;DHT22;379;49.022;12.148;2023-04-25T10:50:17;10.90;72.80
792;DHT22;379;49.022;12.148;2023-04-25T10:52:44;10.70;73.20
792;DHT22;379;49.022;12.148;2023-04-25T10:55:11;10.70;73.70
792;DHT22;379;49.022;12.148;2023-04-25T10:57:39;10.80;73.80
792;DHT22;379;49.022;12.148;2023-04-25T11:00:13;11.00;73.70
792;DHT22;379;49.022;12.148;2023-04-25T11:02:44;11.50;72.80
792;DHT22;379;49.022;12.148;2023-04-25T11:05:20;12.00;70.60
792;DHT22;379;49.022;12.148;2023-04-25T11:07:50;12.10;69.60
792;DHT22;379;49.022;12.148;2023-04-25T11:10:18;12.20;69.00
792;DHT22;379;49.022;12.148;2023-04-25T11:12:45;12.30;68.70
792;DHT22;379;49.022;12.148;2023-04-25T11:15:14;12.60;68.70
792;DHT22;379;49.022;12.148;2023-04-25T11:17:41;12.80;65.10
792;DHT22;379;49.022;12.148;2023-04-25T11:20:09;12.80;62.30
792;DHT22;379;49.022;12.148;2023-04-25T11:22:38;12.90;63.80
792;DHT22;379;49.022;12.148;2023-04-25T11:25:07;13.10;62.80
792;DHT22;379;49.022;12.148;2023-04-25T11:27:34;13.30;58.80
792;DHT22;379;49.022;12.148;2023-04-25T11:30:15;13.60;58.60
792;DHT22;379;49.022;12.148;2023-04-25T11:32:42;14.00;56.60
792;DHT22;379;49.022;12.148;2023-04-25T11:35:09;14.20;57.20
792;DHT22;379;49.022;12.148;2023-04-25T11:37:35;14.20;56.30
792;DHT22;379;49.022;12.148;2023-04-25T11:40:03;13.90;56.90
792;DHT22;379;49.022;12.148;2023-04-25T11:42:32;13.90;59.00
792;DHT22;379;49.022;12.148;2023-04-25T11:44:58;14.10;60.90
792;DHT22;379;49.022;12.148;2023-04-25T11:47:29;14.60;61.10
792;DHT22;379;49.022;12.148;2023-04-25T11:49:58;14.80;56.30
792;DHT22;379;49.022;12.148;2023-04-25T11:52:24;15.20;56.90
792;DHT22;379;49.022;12.148;2023-04-25T11:54:51;15.50;56.50
792;DHT22;379;49.022;12.148;2023-04-25T11:57:19;15.50;54.60
792;DHT22;379;49.022;12.148;2023-04-25T11:59:46;15.10;51.00
792;DHT22;379;49.022;12.148;2023-04-25T12:02:24;14.90;52.50
792;DHT22;379;49.022;12.148;2023-04-25T12:04:53;14.80;50.90
792;DHT22;379;49.022;12.148;2023-04-25T12:07:20;15.20;52.00
792;DHT22;379;49.022;12.148;2023-04-25T12:09:51;15.50;51.20
792;DHT22;379;49.022;12.148;2023-04-25T12:12:18;15.80;50.70
792;DHT22;379;49.022;12.148;2023-04-25T12:14:47;15.50;50.00
792;DHT22;379;49.022;12.148;2023-04-25T12:17:14;15.00;49.30
792;DHT22;379;49.022;12.148;2023-04-25T12:19:41;14.60;50.70
792;DHT22;379;49.022;12.148;2023-04-25T12:22:21;14.40;50.90
792;DHT22;379;49.022;12.148;2023-04-25T12:24:48;14.20;49.40
792;DHT22;379;49.022;12.148;2023-04-25T12:27:16;14.00;50.70
792;DHT22;379;49.022;12.148;2023-04-25T12:29:50;13.90;50.80
792;DHT22;379;49.022;12.148;2023-04-25T12:32:17;13.80;51.00
792;DHT22;379;49.022;12.148;2023-04-25T12:34:44;13.90;51.60
792;DHT22;379;49.022;12.148;2023-04-25T12:37:11;14.10;51.70
792;DHT22;379;49.022;12.148;2023-04-25T12:39:39;14.20;51.10
792;DHT22;379;49.022;12.148;2023-04-25T12:42:06;14.30;50.80
792;DHT22;379;49.022;12.148;2023-04-25T12:44:49;14.50;50.50
792;DHT22;379;49.022;12.148;2023-04-25T12:47:16;14.90;49.70
792;DHT22;379;49.022;12.148;2023-04-25T12:49:43;15.10;49.70
792;DHT22;379;49.022;12.148;2023-04-25T12:52:09;15.20;48.70
792;DHT22;379;49.022;12.148;2023-04-25T12:54:36;15.30;48.90
792;DHT22;379;49.022;12.148;2023-04-25T12:57:05;15.30;48.10
792;DHT22;379;49.022;12.148;2023-04-25T12:59:32;15.30;46.90
792;DHT22;379;49.022;12.148;2023-04-25T13:01:58;15.20;48.70
792;DHT22;379;49.022;12.148;2023-04-25T13:04:25;15.10;48.00
792;DHT22;379;49.022;12.148;2023-04-25T13:06:52;15.10;49.10
792;DHT22;379;49.022;12.148;2023-04-25T13:09:19;14.80;48.70
792;DHT22;379;49.022;12.148;2023-04-25T13:11:46;14.50;49.60
792;DHT22;379;49.022;12.148;2023-04-25T13:14:14;14.20;50.00
792;DHT22;379;49.022;12.148;2023-04-25T13:16:41;14.00;50.40
792;DHT22;379;49.022;12.148;2023-04-25T13:19:07;13.90;49.30
792;DHT22;379;49.022;12.148;2023-04-25T13:21:36;13.80;49.40
792;DHT22;379;49.022;12.148;2023-04-25T13:24:04;13.70;49.10
792;DHT22;379;49.022;12.148;2023-04-25T13:26:31;13.50;49.70
792;DHT22;379;49.022;12.148;2023-04-25T13:28:57;13.30;50.40
792;DHT22;379;49.022;12.148;2023-04-25T13:31:27;13.30;51.90
792;DHT22;379;49.022;12.148;2023-04-25T13:33:53;13.50;51.20
792;DHT22;379;49.022;12.148;2023-04-25T13:36:20;13.40;50.90
792;DHT22;379;49.022;12.148;2023-04-25T13:38:48;13.30;51.10
792;DHT22;379;49.022;12.148;2023-04-25T13:41:14;13.30;51.60
792;DHT22;379;49.022;12.148;2023-04-25T13:43:44;13.20;51.50
792;DHT22;379;49.022;12.148;2023-04-25T13:46:12;13.10;51.40
792;DHT22;379;49.022;12.148;2023-04-25T13:48:42;13.00;51.80
792;DHT22;379;49.022;12.148;2023-04-25T13:51:14;12.90;52.30
792;DHT22;379;49.022;12.148;2023-04-25T13:53:42;12.80;52.70
792;DHT22;379;49.022;12.148;2023-04-25T13:56:08;12.90;53.10
792;DHT22;379;49.022;12.148;2023-04-25T13:58:36;12.90;53.70
792;DHT22;379;49.022;12.148;2023-04-25T14:01:03;12.90;53.90
792;DHT22;379;49.022;12.148;2023-04-25T14:03:30;13.00;54.50
792;DHT22;379;49.022;12.148;2023-04-25T14:05:58;13.00;53.90
792;DHT22;379;49.022;12.148;2023-04-25T14:08:25;12.90;54.00
792;DHT22;379;49.022;12.148;2023-04-25T14:10:52;13.00;54.30
792;DHT22;379;49.022;12.148;2023-04-25T14:13:19;13.10;53.90
792;DHT22;379;49.022;12.148;2023-04-25T14:15:46;13.10;52.80
792;DHT22;379;49.022;12.148;2023-04-25T14:18:13;13.10;52.10
792;DHT22;379;49.022;12.148;2023-04-25T14:20:39;13.30;52.00
792;DHT22;379;49.022;12.148;2023-04-25T14:23:07;13.40;51.50
792;DHT22;379;49.022;12.148;2023-04-25T14:25:34;13.40;52.20
792;DHT22;379;49.022;12.148;2023-04-25T14:28:02;13.60;53.10
792;DHT22;379;49.022;12.148;2023-04-25T14:30:29;13.80;52.50
792;DHT22;379;49.022;12.148;2023-04-25T14:32:55;14.00;51.60
792;DHT22;379;49.022;12.148;2023-04-25T14:35:22;14.10;51.10
792;DHT22;379;49.022;12.148;2023-04-25T14:37:49;14.40;51.50
792;DHT22;379;49.022;12.148;2023-04-25T14:40:17;14.60;50.20
792;DHT22;379;49.022;12.148;2023-04-25T14:42:47;14.70;51.00
792;DHT22;379;49.022;12.148;2023-04-25T14:45:14;14.80;50.10
792;DHT22;379;49.022;12.148;2023-04-25T14:47:41;14.70;48.90
792;DHT22;379;49.022;12.148;2023-04-25T14:50:08;14.70;50.30
792;DHT22;379;49.022;12.148;2023-04-25T14:52:35;14.70;48.60
792;DHT22;379;49.022;12.148;2023-04-25T14:55:02;14.50;48.20
792;DHT22;379;49.022;12.148;2023-04-25T14:57:32;14.50;48.50
792;DHT22;379;49.022;12.148;2023-04-25T14:59:58;14.60;49.30
792;DHT22;379;49.022;12.148;2023-04-25T15:02:26;14.70;49.00
792;DHT22;379;49.022;12.148;2023-04-25T15:04:53;14.70;47.40
792;DHT22;379;49.022;12.148;2023-04-25T15:07:21;14.60;47.20
792;DHT22;379;49.022;12.148;2023-04-25T15:09:48;14.30;47.10
792;DHT22;379;49.022;12.148;2023-04-25T15:12:14;14.00;47.70
792;DHT22;379;49.022;12.148;2023-04-25T15:14:43;13.90;48.40
792;DHT22;379;49.022;12.148;2023-04-25T15:17:09;14.00;49.60
792;DHT22;379;49.022;12.148;2023-04-25T15:19:38;14.00;47.80
792;DHT22;379;49.022;12.148;2023-04-25T15:22:05;13.80;47.70
792;DHT22;379;49.022;12.148;2023-04-25T15:24:32;13.50;47.20
792;DHT22;379;49.022;12.148;2023-04-25T15:26:59;13.30;47.90
792;DHT22;379;49.022;12.148;2023-04-25T15:29:25;13.10;48.90
792;DHT22;379;49.022;12.148;2023-04-25T15:31:54;12.90;47.70
792;DHT22;379;49.022;12.148;2023-04-25T15:34:20;12.80;47.80
792;DHT22;379;49.022;12.148;2023-04-25T15:36:47;12.60;47.60
792;DHT22;379;49.022;12.148;2023-04-25T15:39:14;12.60;48.30
792;DHT22;379;49.022;12.148;2023-04-25T15:41:41;12.50;48.90
792;DHT22;379;49.022;12.148;2023-04-25T15:44:07;12.40;48.70
792;DHT22;379;49.022;12.148;2023-04-25T15:46:35;12.40;49.20
792;DHT22;379;49.022;12.148;2023-04-25T15:49:03;12.40;49.80
792;DHT22;379;49.022;12.148;2023-04-25T15:51:30;12.50;50.30
792;DHT22;379;49.022;12.148;2023-04-25T15:53:58;12.60;50.00
792;DHT22;379;49.022;12.148;2023-04-25T15:56:25;12.50;50.10
792;DHT22;379;49.022;12.148;2023-04-25T15:58:52;12.50;50.60
792;DHT22;379;49.022;12.148;2023-04-25T16:01:19;12.40;51.30
792;DHT22;379;49.022;12.148;2023-04-25T16:03:49;12.30;51.20
792;DHT22;379;49.022;12.148;2023-04-25T16:06:17;12.20;51.30
792;DHT22;379;49.022;12.148;2023-04-25T16:08:44;12.00;51.60
792;DHT22;379;49.022;12.148;2023-04-25T16:11:11;11.90;52.20
792;DHT22;379;49.022;12.148;2023-04-25T16:13:39;11.70;52.70
792;DHT22;379;49.022;12.148;2023-04-25T16:16:06;11.60;52.80
792;DHT22;379;49.022;12.148;2023-04-25T16:18:33;11.50;53.00
792;DHT22;379;49.022;12.148;2023-04-25T16:20:59;11.30;52.60
792;DHT22;379;49.022;12.148;2023-04-25T16:23:27;11.30;53.30
792;DHT22;379;49.022;12.148;2023-04-25T16:25:54;11.20;53.20
792;DHT22;379;49.022;12.148;2023-04-25T16:28:21;11.20;53.40
792;DHT22;379;49.022;12.148;2023-04-25T16:30:48;11.20;53.50